sensor_id;sensor_type;location;lat;lon;timestamp;P1;durP1;ratioP1;P2;durP2;ratioP2
59006;SDS011;44792;52.760;6.726;2023-11-22T00:00:28;8.95;;;6.53;;
59006;SDS011;44792;52.760;6.726;2023-11-22T00:02:56;10.50;;;6.60;;
59006;SDS011;44792;52.760;6.726;2023-11-22T00:05:22;10.88;;;7.10;;
59006;SDS011;44792;52.760;6.726;2023-11-22T00:07:47;13.85;;;7.30;;
59006;SDS011;44792;52.760;6.726;2023-11-22T00:10:13;11.93;;;6.63;;
59006;SDS011;44792;52.760;6.726;2023-11-22T00:12:39;12.07;;;7.30;;
59006;SDS011;44792;52.760;6.726;2023-11-22T00:15:05;14.65;;;6.82;;
59006;SDS011;44792;52.760;6.726;2023-11-22T00:17:32;12.88;;;7.28;;
59006;SDS011;44792;52.760;6.726;2023-11-22T00:19:58;14.18;;;7.65;;
59006;SDS011;44792;52.760;6.726;2023-11-22T00:22:27;11.75;;;6.88;;
59006;SDS011;44792;52.760;6.726;2023-11-22T00:24:53;11.60;;;7.47;;
59006;SDS011;44792;52.760;6.726;2023-11-22T00:27:19;9.85;;;6.57;;
59006;SDS011;44792;52.760;6.726;2023-11-22T00:29:45;11.52;;;7.35;;
59006;SDS011;44792;52.760;6.726;2023-11-22T00:32:13;12.48;;;7.47;;
59006;SDS011;44792;52.760;6.726;2023-11-22T00:34:39;13.02;;;7.28;;
59006;SDS011;44792;52.760;6.726;2023-11-22T00:37:04;12.35;;;7.45;;
59006;SDS011;44792;52.760;6.726;2023-11-22T00:39:30;10.25;;;7.13;;
59006;SDS011;44792;52.760;6.726;2023-11-22T00:41:57;9.82;;;6.63;;
59006;SDS011;44792;52.760;6.726;2023-11-22T00:44:22;13.60;;;7.40;;
59006;SDS011;44792;52.760;6.726;2023-11-22T00:46:48;11.27;;;7.50;;
59006;SDS011;44792;52.760;6.726;2023-11-22T00:49:14;12.73;;;7.13;;
59006;SDS011;44792;52.760;6.726;2023-11-22T00:51:39;12.73;;;6.90;;
59006;SDS011;44792;52.760;6.726;2023-11-22T00:54:05;11.38;;;6.90;;
59006;SDS011;44792;52.760;6.726;2023-11-22T00:56:31;11.48;;;6.63;;
59006;SDS011;44792;52.760;6.726;2023-11-22T00:58:57;15.43;;;7.72;;
59006;SDS011;44792;52.760;6.726;2023-11-22T01:01:25;12.50;;;7.32;;
59006;SDS011;44792;52.760;6.726;2023-11-22T01:03:51;12.52;;;6.50;;
59006;SDS011;44792;52.760;6.726;2023-11-22T01:06:17;13.07;;;7.60;;
59006;SDS011;44792;52.760;6.726;2023-11-22T01:08:43;12.43;;;6.88;;
59006;SDS011;44792;52.760;6.726;2023-11-22T01:11:09;12.95;;;7.45;;
59006;SDS011;44792;52.760;6.726;2023-11-22T01:13:34;14.38;;;8.05;;
59006;SDS011;44792;52.760;6.726;2023-11-22T01:16:09;11.80;;;6.95;;
59006;SDS011;44792;52.760;6.726;2023-11-22T01:18:35;14.05;;;8.43;;
59006;SDS011;44792;52.760;6.726;2023-11-22T01:21:01;15.90;;;7.57;;
59006;SDS011;44792;52.760;6.726;2023-11-22T01:23:29;13.18;;;7.20;;
59006;SDS011;44792;52.760;6.726;2023-11-22T01:25:55;12.25;;;7.22;;
59006;SDS011;44792;52.760;6.726;2023-11-22T01:28:20;12.23;;;6.97;;
59006;SDS011;44792;52.760;6.726;2023-11-22T01:30:47;13.02;;;8.40;;
59006;SDS011;44792;52.760;6.726;2023-11-22T01:33:14;10.23;;;6.93;;
59006;SDS011;44792;52.760;6.726;2023-11-22T01:35:40;11.27;;;6.70;;
59006;SDS011;44792;52.760;6.726;2023-11-22T01:38:06;13.73;;;7.32;;
59006;SDS011;44792;52.760;6.726;2023-11-22T01:40:33;11.23;;;6.90;;
59006;SDS011;44792;52.760;6.726;2023-11-22T01:42:59;12.38;;;7.13;;
59006;SDS011;44792;52.760;6.726;2023-11-22T01:45:27;11.10;;;6.43;;
59006;SDS011;44792;52.760;6.726;2023-11-22T01:47:53;13.32;;;6.57;;
59006;SDS011;44792;52.760;6.726;2023-11-22T01:50:20;12.88;;;7.05;;
59006;SDS011;44792;52.760;6.726;2023-11-22T01:52:46;9.55;;;6.90;;
59006;SDS011;44792;52.760;6.726;2023-11-22T01:55:12;13.38;;;6.93;;
59006;SDS011;44792;52.760;6.726;2023-11-22T01:57:41;9.43;;;6.28;;
59006;SDS011;44792;52.760;6.726;2023-11-22T02:00:06;11.10;;;6.75;;
59006;SDS011;44792;52.760;6.726;2023-11-22T02:02:33;10.40;;;6.85;;
59006;SDS011;44792;52.760;6.726;2023-11-22T02:04:59;12.98;;;6.72;;
59006;SDS011;44792;52.760;6.726;2023-11-22T02:07:28;11.35;;;7.03;;
59006;SDS011;44792;52.760;6.726;2023-11-22T02:09:53;13.02;;;7.47;;
59006;SDS011;44792;52.760;6.726;2023-11-22T02:12:19;11.40;;;6.95;;
59006;SDS011;44792;52.760;6.726;2023-11-22T02:14:45;15.55;;;7.00;;
59006;SDS011;44792;52.760;6.726;2023-11-22T02:17:11;13.23;;;8.05;;
59006;SDS011;44792;52.760;6.726;2023-11-22T02:19:37;11.88;;;6.85;;
59006;SDS011;44792;52.760;6.726;2023-11-22T02:22:03;11.95;;;7.45;;
59006;SDS011;44792;52.760;6.726;2023-11-22T02:24:29;11.27;;;5.93;;
59006;SDS011;44792;52.760;6.726;2023-11-22T02:26:55;9.82;;;6.25;;
59006;SDS011;44792;52.760;6.726;2023-11-22T02:29:20;12.45;;;6.35;;
59006;SDS011;44792;52.760;6.726;2023-11-22T02:31:47;16.48;;;7.00;;
59006;SDS011;44792;52.760;6.726;2023-11-22T02:34:13;13.02;;;7.05;;
59006;SDS011;44792;52.760;6.726;2023-11-22T02:36:43;16.55;;;7.20;;
59006;SDS011;44792;52.760;6.726;2023-11-22T02:39:09;10.98;;;6.97;;
59006;SDS011;44792;52.760;6.726;2023-11-22T02:41:35;11.75;;;6.68;;
59006;SDS011;44792;52.760;6.726;2023-11-22T02:44:01;10.40;;;6.85;;
59006;SDS011;44792;52.760;6.726;2023-11-22T02:46:27;15.25;;;7.93;;
59006;SDS011;44792;52.760;6.726;2023-11-22T02:48:56;12.05;;;7.20;;
59006;SDS011;44792;52.760;6.726;2023-11-22T02:51:21;12.30;;;7.40;;
59006;SDS011;44792;52.760;6.726;2023-11-22T02:53:47;10.05;;;6.75;;
59006;SDS011;44792;52.760;6.726;2023-11-22T02:56:15;11.20;;;7.47;;
59006;SDS011;44792;52.760;6.726;2023-11-22T02:58:41;12.63;;;7.13;;
59006;SDS011;44792;52.760;6.726;2023-11-22T03:01:06;10.70;;;6.63;;
59006;SDS011;44792;52.760;6.726;2023-11-22T03:03:35;9.65;;;6.22;;
59006;SDS011;44792;52.760;6.726;2023-11-22T03:06:01;11.85;;;6.00;;
59006;SDS011;44792;52.760;6.726;2023-11-22T03:08:27;12.50;;;7.05;;
59006;SDS011;44792;52.760;6.726;2023-11-22T03:10:53;11.23;;;6.68;;
59006;SDS011;44792;52.760;6.726;2023-11-22T03:13:19;10.90;;;6.00;;
59006;SDS011;44792;52.760;6.726;2023-11-22T03:15:44;12.45;;;7.65;;
59006;SDS011;44792;52.760;6.726;2023-11-22T03:18:10;15.35;;;7.63;;
59006;SDS011;44792;52.760;6.726;2023-11-22T03:20:36;12.68;;;7.70;;
59006;SDS011;44792;52.760;6.726;2023-11-22T03:23:02;13.23;;;7.78;;
59006;SDS011;44792;52.760;6.726;2023-11-22T03:25:29;12.05;;;7.13;;
59006;SDS011;44792;52.760;6.726;2023-11-22T03:27:56;16.90;;;7.55;;
59006;SDS011;44792;52.760;6.726;2023-11-22T03:30:22;14.27;;;7.78;;
59006;SDS011;44792;52.760;6.726;2023-11-22T03:32:48;12.20;;;6.72;;
59006;SDS011;44792;52.760;6.726;2023-11-22T03:35:15;12.80;;;7.15;;
59006;SDS011;44792;52.760;6.726;2023-11-22T03:37:41;14.93;;;7.95;;
59006;SDS011;44792;52.760;6.726;2023-11-22T03:40:07;12.65;;;6.95;;
59006;SDS011;44792;52.760;6.726;2023-11-22T03:42:37;11.98;;;6.68;;
59006;SDS011;44792;52.760;6.726;2023-11-22T03:45:04;13.52;;;6.85;;
59006;SDS011;44792;52.760;6.726;2023-11-22T03:47:31;11.27;;;6.82;;
59006;SDS011;44792;52.760;6.726;2023-11-22T03:49:58;12.27;;;6.10;;
59006;SDS011;44792;52.760;6.726;2023-11-22T03:52:24;12.77;;;7.47;;
59006;SDS011;44792;52.760;6.726;2023-11-22T03:54:51;12.23;;;7.43;;
59006;SDS011;44792;52.760;6.726;2023-11-22T03:57:17;11.07;;;6.95;;
59006;SDS011;44792;52.760;6.726;2023-11-22T03:59:43;10.32;;;6.25;;
59006;SDS011;44792;52.760;6.726;2023-11-22T04:02:09;9.93;;;6.40;;
59006;SDS011;44792;52.760;6.726;2023-11-22T04:04:36;10.65;;;6.18;;
59006;SDS011;44792;52.760;6.726;2023-11-22T04:07:02;13.32;;;6.97;;
59006;SDS011;44792;52.760;6.726;2023-11-22T04:09:28;11.77;;;6.57;;
59006;SDS011;44792;52.760;6.726;2023-11-22T04:11:54;11.18;;;7.20;;
59006;SDS011;44792;52.760;6.726;2023-11-22T04:14:20;13.85;;;7.85;;
59006;SDS011;44792;52.760;6.726;2023-11-22T04:16:46;13.32;;;7.82;;
59006;SDS011;44792;52.760;6.726;2023-11-22T04:19:12;11.98;;;7.15;;
59006;SDS011;44792;52.760;6.726;2023-11-22T04:21:38;10.90;;;6.95;;
59006;SDS011;44792;52.760;6.726;2023-11-22T04:24:04;11.35;;;6.85;;
59006;SDS011;44792;52.760;6.726;2023-11-22T04:26:31;13.45;;;6.95;;
59006;SDS011;44792;52.760;6.726;2023-11-22T04:28:56;11.45;;;5.93;;
59006;SDS011;44792;52.760;6.726;2023-11-22T04:31:23;10.07;;;5.70;;
59006;SDS011;44792;52.760;6.726;2023-11-22T04:33:49;10.63;;;6.30;;
59006;SDS011;44792;52.760;6.726;2023-11-22T04:36:15;9.30;;;5.68;;
59006;SDS011;44792;52.760;6.726;2023-11-22T04:38:41;10.35;;;6.30;;
59006;SDS011;44792;52.760;6.726;2023-11-22T04:41:07;8.65;;;5.47;;
59006;SDS011;44792;52.760;6.726;2023-11-22T04:43:33;7.43;;;4.57;;
59006;SDS011;44792;52.760;6.726;2023-11-22T04:45:59;9.90;;;4.85;;
59006;SDS011;44792;52.760;6.726;2023-11-22T04:48:25;7.30;;;4.53;;
59006;SDS011;44792;52.760;6.726;2023-11-22T04:50:50;9.55;;;6.07;;
59006;SDS011;44792;52.760;6.726;2023-11-22T04:53:17;14.20;;;7.20;;
59006;SDS011;44792;52.760;6.726;2023-11-22T04:55:44;14.93;;;6.88;;
59006;SDS011;44792;52.760;6.726;2023-11-22T04:58:09;9.40;;;5.90;;
59006;SDS011;44792;52.760;6.726;2023-11-22T05:00:35;9.27;;;5.93;;
59006;SDS011;44792;52.760;6.726;2023-11-22T05:03:01;8.85;;;6.30;;
59006;SDS011;44792;52.760;6.726;2023-11-22T05:05:27;8.32;;;6.10;;
59006;SDS011;44792;52.760;6.726;2023-11-22T05:07:52;9.27;;;5.53;;
59006;SDS011;44792;52.760;6.726;2023-11-22T05:10:18;7.28;;;5.40;;
59006;SDS011;44792;52.760;6.726;2023-11-22T05:12:44;8.20;;;5.45;;
59006;SDS011;44792;52.760;6.726;2023-11-22T05:15:09;8.40;;;5.60;;
59006;SDS011;44792;52.760;6.726;2023-11-22T05:17:35;8.27;;;5.82;;
59006;SDS011;44792;52.760;6.726;2023-11-22T05:20:01;8.65;;;5.30;;
59006;SDS011;44792;52.760;6.726;2023-11-22T05:22:27;8.60;;;5.70;;
59006;SDS011;44792;52.760;6.726;2023-11-22T05:24:53;8.20;;;5.45;;
59006;SDS011;44792;52.760;6.726;2023-11-22T05:27:18;8.02;;;5.75;;
59006;SDS011;44792;52.760;6.726;2023-11-22T05:29:44;12.15;;;5.53;;
59006;SDS011;44792;52.760;6.726;2023-11-22T05:32:10;8.55;;;5.50;;
59006;SDS011;44792;52.760;6.726;2023-11-22T05:34:36;9.35;;;6.10;;
59006;SDS011;44792;52.760;6.726;2023-11-22T05:37:02;13.60;;;6.22;;
59006;SDS011;44792;52.760;6.726;2023-11-22T05:39:30;8.63;;;5.85;;
59006;SDS011;44792;52.760;6.726;2023-11-22T05:41:56;9.38;;;6.05;;
59006;SDS011;44792;52.760;6.726;2023-11-22T05:44:21;12.02;;;6.60;;
59006;SDS011;44792;52.760;6.726;2023-11-22T05:46:47;11.98;;;7.43;;
59006;SDS011;44792;52.760;6.726;2023-11-22T05:49:13;12.52;;;7.20;;
59006;SDS011;44792;52.760;6.726;2023-11-22T05:51:38;11.98;;;7.18;;
59006;SDS011;44792;52.760;6.726;2023-11-22T05:54:04;10.77;;;6.93;;
59006;SDS011;44792;52.760;6.726;2023-11-22T05:56:30;10.15;;;6.82;;
59006;SDS011;44792;52.760;6.726;2023-11-22T05:58:56;12.43;;;6.72;;
59006;SDS011;44792;52.760;6.726;2023-11-22T06:01:24;14.57;;;6.20;;
59006;SDS011;44792;52.760;6.726;2023-11-22T06:03:51;12.95;;;8.70;;
59006;SDS011;44792;52.760;6.726;2023-11-22T06:06:18;13.98;;;7.65;;
59006;SDS011;44792;52.760;6.726;2023-11-22T06:08:46;13.88;;;7.22;;
59006;SDS011;44792;52.760;6.726;2023-11-22T06:11:12;11.75;;;6.80;;
59006;SDS011;44792;52.760;6.726;2023-11-22T06:13:40;11.75;;;6.82;;
59006;SDS011;44792;52.760;6.726;2023-11-22T06:16:07;12.45;;;7.55;;
59006;SDS011;44792;52.760;6.726;2023-11-22T06:18:32;13.82;;;7.43;;
59006;SDS011;44792;52.760;6.726;2023-11-22T06:20:59;12.20;;;6.82;;
59006;SDS011;44792;52.760;6.726;2023-11-22T06:23:25;14.75;;;7.22;;
59006;SDS011;44792;52.760;6.726;2023-11-22T06:25:50;13.27;;;7.20;;
59006;SDS011;44792;52.760;6.726;2023-11-22T06:28:16;13.77;;;7.45;;
59006;SDS011;44792;52.760;6.726;2023-11-22T06:30:43;15.00;;;8.93;;
59006;SDS011;44792;52.760;6.726;2023-11-22T06:33:08;24.02;;;14.70;;
59006;SDS011;44792;52.760;6.726;2023-11-22T06:35:35;17.88;;;10.30;;
59006;SDS011;44792;52.760;6.726;2023-11-22T06:38:01;14.27;;;9.63;;
59006;SDS011;44792;52.760;6.726;2023-11-22T06:40:27;14.05;;;8.40;;
59006;SDS011;44792;52.760;6.726;2023-11-22T06:42:55;11.05;;;7.88;;
59006;SDS011;44792;52.760;6.726;2023-11-22T06:45:21;11.60;;;6.72;;
59006;SDS011;44792;52.760;6.726;2023-11-22T06:47:47;9.15;;;5.95;;
59006;SDS011;44792;52.760;6.726;2023-11-22T06:50:14;10.57;;;6.15;;
59006;SDS011;44792;52.760;6.726;2023-11-22T06:52:41;11.52;;;6.85;;
59006;SDS011;44792;52.760;6.726;2023-11-22T06:55:07;13.27;;;7.45;;
59006;SDS011;44792;52.760;6.726;2023-11-22T06:57:34;11.85;;;7.40;;
59006;SDS011;44792;52.760;6.726;2023-11-22T07:00:03;12.73;;;7.18;;
59006;SDS011;44792;52.760;6.726;2023-11-22T07:02:33;11.85;;;7.72;;
59006;SDS011;44792;52.760;6.726;2023-11-22T07:05:03;14.07;;;8.93;;
59006;SDS011;44792;52.760;6.726;2023-11-22T07:07:33;13.00;;;8.75;;
59006;SDS011;44792;52.760;6.726;2023-11-22T07:09:58;16.48;;;8.57;;
59006;SDS011;44792;52.760;6.726;2023-11-22T07:12:24;13.23;;;7.75;;
59006;SDS011;44792;52.760;6.726;2023-11-22T07:14:51;15.85;;;7.97;;
59006;SDS011;44792;52.760;6.726;2023-11-22T07:17:17;12.60;;;7.07;;
59006;SDS011;44792;52.760;6.726;2023-11-22T07:19:43;14.82;;;7.57;;
59006;SDS011;44792;52.760;6.726;2023-11-22T07:22:12;12.23;;;6.60;;
59006;SDS011;44792;52.760;6.726;2023-11-22T07:24:45;17.50;;;7.30;;
59006;SDS011;44792;52.760;6.726;2023-11-22T07:27:12;13.18;;;7.70;;
59006;SDS011;44792;52.760;6.726;2023-11-22T07:29:42;14.20;;;8.15;;
59006;SDS011;44792;52.760;6.726;2023-11-22T07:32:09;15.27;;;7.93;;
59006;SDS011;44792;52.760;6.726;2023-11-22T07:34:35;18.52;;;9.65;;
59006;SDS011;44792;52.760;6.726;2023-11-22T07:37:02;17.13;;;9.10;;
59006;SDS011;44792;52.760;6.726;2023-11-22T07:39:27;16.05;;;8.80;;
59006;SDS011;44792;52.760;6.726;2023-11-22T07:41:54;17.63;;;10.18;;
59006;SDS011;44792;52.760;6.726;2023-11-22T07:44:22;17.85;;;9.15;;
59006;SDS011;44792;52.760;6.726;2023-11-22T07:46:52;15.85;;;10.45;;
59006;SDS011;44792;52.760;6.726;2023-11-22T07:49:19;21.02;;;10.30;;
59006;SDS011;44792;52.760;6.726;2023-11-22T07:51:46;16.13;;;9.60;;
59006;SDS011;44792;52.760;6.726;2023-11-22T07:54:12;16.77;;;10.55;;
59006;SDS011;44792;52.760;6.726;2023-11-22T07:56:41;23.15;;;11.05;;
59006;SDS011;44792;52.760;6.726;2023-11-22T07:59:11;18.23;;;9.88;;
59006;SDS011;44792;52.760;6.726;2023-11-22T08:01:38;16.27;;;9.10;;
59006;SDS011;44792;52.760;6.726;2023-11-22T08:04:04;15.45;;;8.80;;
59006;SDS011;44792;52.760;6.726;2023-11-22T08:06:33;23.23;;;9.93;;
59006;SDS011;44792;52.760;6.726;2023-11-22T08:09:00;15.02;;;9.00;;
59006;SDS011;44792;52.760;6.726;2023-11-22T08:11:29;15.40;;;8.90;;
59006;SDS011;44792;52.760;6.726;2023-11-22T08:13:56;17.40;;;10.45;;
59006;SDS011;44792;52.760;6.726;2023-11-22T08:16:24;17.58;;;9.18;;
59006;SDS011;44792;52.760;6.726;2023-11-22T08:18:50;17.02;;;10.00;;
59006;SDS011;44792;52.760;6.726;2023-11-22T08:21:16;17.55;;;10.00;;
59006;SDS011;44792;52.760;6.726;2023-11-22T08:23:42;21.27;;;11.45;;
59006;SDS011;44792;52.760;6.726;2023-11-22T08:26:08;21.42;;;11.23;;
59006;SDS011;44792;52.760;6.726;2023-11-22T08:28:34;18.00;;;9.75;;
59006;SDS011;44792;52.760;6.726;2023-11-22T08:30:59;21.15;;;10.93;;
59006;SDS011;44792;52.760;6.726;2023-11-22T08:33:29;19.65;;;11.13;;
59006;SDS011;44792;52.760;6.726;2023-11-22T08:35:55;18.42;;;10.70;;
59006;SDS011;44792;52.760;6.726;2023-11-22T08:38:24;19.42;;;10.77;;
59006;SDS011;44792;52.760;6.726;2023-11-22T08:40:53;19.77;;;11.43;;
59006;SDS011;44792;52.760;6.726;2023-11-22T08:43:20;23.27;;;11.15;;
59006;SDS011;44792;52.760;6.726;2023-11-22T08:45:51;20.55;;;10.88;;
59006;SDS011;44792;52.760;6.726;2023-11-22T08:48:17;21.83;;;10.77;;
59006;SDS011;44792;52.760;6.726;2023-11-22T08:50:42;20.15;;;10.80;;
59006;SDS011;44792;52.760;6.726;2023-11-22T08:53:13;15.65;;;9.60;;
59006;SDS011;44792;52.760;6.726;2023-11-22T08:55:39;19.88;;;9.95;;
59006;SDS011;44792;52.760;6.726;2023-11-22T08:58:04;17.85;;;9.43;;
59006;SDS011;44792;52.760;6.726;2023-11-22T09:00:30;17.58;;;9.10;;
59006;SDS011;44792;52.760;6.726;2023-11-22T09:02:57;20.63;;;10.73;;
59006;SDS011;44792;52.760;6.726;2023-11-22T09:05:23;19.77;;;11.48;;
59006;SDS011;44792;52.760;6.726;2023-11-22T09:07:49;19.23;;;10.15;;
59006;SDS011;44792;52.760;6.726;2023-11-22T09:10:16;19.08;;;9.68;;
59006;SDS011;44792;52.760;6.726;2023-11-22T09:12:43;17.52;;;9.60;;
59006;SDS011;44792;52.760;6.726;2023-11-22T09:15:10;21.65;;;11.85;;
59006;SDS011;44792;52.760;6.726;2023-11-22T09:17:38;18.25;;;10.57;;
59006;SDS011;44792;52.760;6.726;2023-11-22T09:20:09;21.40;;;11.07;;
59006;SDS011;44792;52.760;6.726;2023-11-22T09:22:44;21.67;;;13.20;;
59006;SDS011;44792;52.760;6.726;2023-11-22T09:27:48;17.25;;;9.05;;
59006;SDS011;44792;52.760;6.726;2023-11-22T09:30:18;18.17;;;10.07;;
59006;SDS011;44792;52.760;6.726;2023-11-22T09:33:07;22.00;;;10.23;;
59006;SDS011;44792;52.760;6.726;2023-11-22T09:35:34;17.90;;;10.27;;
59006;SDS011;44792;52.760;6.726;2023-11-22T09:38:00;18.83;;;10.18;;
59006;SDS011;44792;52.760;6.726;2023-11-22T09:40:34;25.17;;;11.88;;
59006;SDS011;44792;52.760;6.726;2023-11-22T09:43:01;20.05;;;11.55;;
59006;SDS011;44792;52.760;6.726;2023-11-22T09:45:28;20.95;;;10.68;;
59006;SDS011;44792;52.760;6.726;2023-11-22T09:47:55;19.02;;;10.35;;
59006;SDS011;44792;52.760;6.726;2023-11-22T09:50:49;19.98;;;11.02;;
59006;SDS011;44792;52.760;6.726;2023-11-22T09:53:59;22.52;;;11.95;;
59006;SDS011;44792;52.760;6.726;2023-11-22T09:56:22;21.50;;;11.73;;
59006;SDS011;44792;52.760;6.726;2023-11-22T09:58:51;27.50;;;13.45;;
59006;SDS011;44792;52.760;6.726;2023-11-22T10:01:20;24.15;;;12.63;;
59006;SDS011;44792;52.760;6.726;2023-11-22T10:03:47;27.10;;;12.75;;
59006;SDS011;44792;52.760;6.726;2023-11-22T10:06:13;25.65;;;12.23;;
59006;SDS011;44792;52.760;6.726;2023-11-22T10:08:40;24.95;;;12.05;;
59006;SDS011;44792;52.760;6.726;2023-11-22T10:11:06;24.95;;;12.77;;
59006;SDS011;44792;52.760;6.726;2023-11-22T10:13:32;26.17;;;13.20;;
59006;SDS011;44792;52.760;6.726;2023-11-22T10:16:12;26.15;;;12.45;;
59006;SDS011;44792;52.760;6.726;2023-11-22T10:18:44;25.13;;;12.23;;
59006;SDS011;44792;52.760;6.726;2023-11-22T10:21:29;24.70;;;12.73;;
59006;SDS011;44792;52.760;6.726;2023-11-22T10:23:56;25.85;;;13.88;;
59006;SDS011;44792;52.760;6.726;2023-11-22T10:26:23;23.58;;;13.90;;
59006;SDS011;44792;52.760;6.726;2023-11-22T10:28:53;29.40;;;14.82;;
59006;SDS011;44792;52.760;6.726;2023-11-22T10:31:22;26.10;;;14.48;;
59006;SDS011;44792;52.760;6.726;2023-11-22T10:33:49;26.60;;;14.48;;
59006;SDS011;44792;52.760;6.726;2023-11-22T10:36:15;28.83;;;14.38;;
59006;SDS011;44792;52.760;6.726;2023-11-22T10:38:46;23.40;;;13.07;;
59006;SDS011;44792;52.760;6.726;2023-11-22T10:41:13;30.58;;;12.25;;
59006;SDS011;44792;52.760;6.726;2023-11-22T10:43:39;21.00;;;9.90;;
59006;SDS011;44792;52.760;6.726;2023-11-22T10:46:07;29.13;;;14.77;;
59006;SDS011;44792;52.760;6.726;2023-11-22T10:48:35;28.13;;;13.95;;
59006;SDS011;44792;52.760;6.726;2023-11-22T10:51:02;25.77;;;12.88;;
59006;SDS011;44792;52.760;6.726;2023-11-22T10:53:40;20.67;;;11.68;;
59006;SDS011;44792;52.760;6.726;2023-11-22T10:56:19;18.23;;;8.43;;
59006;SDS011;44792;52.760;6.726;2023-11-22T10:58:56;12.98;;;8.52;;
59006;SDS011;44792;52.760;6.726;2023-11-22T11:01:25;15.93;;;9.70;;
59006;SDS011;44792;52.760;6.726;2023-11-22T11:04:09;17.60;;;9.83;;
59006;SDS011;44792;52.760;6.726;2023-11-22T11:06:44;22.05;;;9.65;;
59006;SDS011;44792;52.760;6.726;2023-11-22T11:09:16;16.17;;;9.57;;
59006;SDS011;44792;52.760;6.726;2023-11-22T11:11:46;15.60;;;8.75;;
59006;SDS011;44792;52.760;6.726;2023-11-22T11:14:12;12.43;;;7.38;;
59006;SDS011;44792;52.760;6.726;2023-11-22T11:16:40;12.18;;;7.25;;
59006;SDS011;44792;52.760;6.726;2023-11-22T11:19:12;11.27;;;7.18;;
59006;SDS011;44792;52.760;6.726;2023-11-22T11:21:39;12.50;;;6.95;;
59006;SDS011;44792;52.760;6.726;2023-11-22T11:24:06;11.05;;;5.90;;
59006;SDS011;44792;52.760;6.726;2023-11-22T11:26:32;8.95;;;6.13;;
59006;SDS011;44792;52.760;6.726;2023-11-22T11:29:01;11.63;;;6.15;;
59006;SDS011;44792;52.760;6.726;2023-11-22T11:31:32;8.75;;;5.95;;
59006;SDS011;44792;52.760;6.726;2023-11-22T11:34:04;8.57;;;5.38;;
59006;SDS011;44792;52.760;6.726;2023-11-22T11:36:31;11.55;;;6.00;;
59006;SDS011;44792;52.760;6.726;2023-11-22T11:38:58;9.30;;;6.13;;
59006;SDS011;44792;52.760;6.726;2023-11-22T11:41:31;12.38;;;6.18;;
59006;SDS011;44792;52.760;6.726;2023-11-22T11:43:57;11.93;;;6.38;;
59006;SDS011;44792;52.760;6.726;2023-11-22T11:46:24;8.20;;;5.40;;
59006;SDS011;44792;52.760;6.726;2023-11-22T11:48:53;8.88;;;6.05;;
59006;SDS011;44792;52.760;6.726;2023-11-22T11:51:23;9.52;;;5.80;;
59006;SDS011;44792;52.760;6.726;2023-11-22T11:53:53;9.63;;;5.25;;
59006;SDS011;44792;52.760;6.726;2023-11-22T11:56:19;8.07;;;5.45;;
59006;SDS011;44792;52.760;6.726;2023-11-22T11:58:46;9.88;;;5.68;;
59006;SDS011;44792;52.760;6.726;2023-11-22T12:01:14;11.60;;;5.88;;
59006;SDS011;44792;52.760;6.726;2023-11-22T12:03:41;9.32;;;5.30;;
59006;SDS011;44792;52.760;6.726;2023-11-22T12:06:08;9.00;;;6.38;;
59006;SDS011;44792;52.760;6.726;2023-11-22T12:08:35;9.30;;;5.70;;
59006;SDS011;44792;52.760;6.726;2023-11-22T12:11:04;8.15;;;5.60;;
59006;SDS011;44792;52.760;6.726;2023-11-22T12:13:33;8.95;;;5.78;;
59006;SDS011;44792;52.760;6.726;2023-11-22T12:16:00;11.98;;;6.45;;
59006;SDS011;44792;52.760;6.726;2023-11-22T12:18:28;13.00;;;7.30;;
59006;SDS011;44792;52.760;6.726;2023-11-22T12:20:54;11.32;;;5.90;;
59006;SDS011;44792;52.760;6.726;2023-11-22T12:23:24;10.30;;;6.63;;
59006;SDS011;44792;52.760;6.726;2023-11-22T12:25:57;11.00;;;5.97;;
59006;SDS011;44792;52.760;6.726;2023-11-22T12:28:23;11.07;;;6.18;;
59006;SDS011;44792;52.760;6.726;2023-11-22T12:30:51;10.57;;;6.30;;
59006;SDS011;44792;52.760;6.726;2023-11-22T12:33:17;9.23;;;5.97;;
59006;SDS011;44792;52.760;6.726;2023-11-22T12:35:44;9.48;;;6.00;;
59006;SDS011;44792;52.760;6.726;2023-11-22T12:38:10;12.55;;;6.85;;
59006;SDS011;44792;52.760;6.726;2023-11-22T12:40:37;10.50;;;5.63;;
59006;SDS011;44792;52.760;6.726;2023-11-22T12:43:03;7.05;;;5.10;;
59006;SDS011;44792;52.760;6.726;2023-11-22T12:45:29;8.02;;;5.22;;
59006;SDS011;44792;52.760;6.726;2023-11-22T12:47:56;7.25;;;5.05;;
59006;SDS011;44792;52.760;6.726;2023-11-22T12:53:10;7.68;;;5.00;;
59006;SDS011;44792;52.760;6.726;2023-11-22T12:55:43;8.80;;;5.10;;
59006;SDS011;44792;52.760;6.726;2023-11-22T12:58:11;6.30;;;4.70;;
59006;SDS011;44792;52.760;6.726;2023-11-22T13:00:40;6.75;;;4.85;;
59006;SDS011;44792;52.760;6.726;2023-11-22T13:03:07;7.82;;;4.60;;
59006;SDS011;44792;52.760;6.726;2023-11-22T13:05:35;6.20;;;4.05;;
59006;SDS011;44792;52.760;6.726;2023-11-22T13:08:01;6.90;;;4.45;;
59006;SDS011;44792;52.760;6.726;2023-11-22T13:10:29;8.02;;;5.60;;
59006;SDS011;44792;52.760;6.726;2023-11-22T13:12:55;7.40;;;4.38;;
59006;SDS011;44792;52.760;6.726;2023-11-22T13:15:22;8.02;;;4.97;;
59006;SDS011;44792;52.760;6.726;2023-11-22T13:17:49;16.08;;;5.85;;
59006;SDS011;44792;52.760;6.726;2023-11-22T13:20:16;8.75;;;5.20;;
59006;SDS011;44792;52.760;6.726;2023-11-22T13:22:44;8.48;;;5.05;;
59006;SDS011;44792;52.760;6.726;2023-11-22T13:25:12;8.35;;;5.38;;
59006;SDS011;44792;52.760;6.726;2023-11-22T13:27:39;7.78;;;4.90;;
59006;SDS011;44792;52.760;6.726;2023-11-22T13:30:06;9.43;;;5.03;;
59006;SDS011;44792;52.760;6.726;2023-11-22T13:32:32;7.70;;;5.03;;
59006;SDS011;44792;52.760;6.726;2023-11-22T13:34:58;9.85;;;4.47;;
59006;SDS011;44792;52.760;6.726;2023-11-22T13:37:24;6.82;;;4.47;;
59006;SDS011;44792;52.760;6.726;2023-11-22T13:39:50;7.15;;;4.45;;
59006;SDS011;44792;52.760;6.726;2023-11-22T13:42:16;7.50;;;4.68;;
59006;SDS011;44792;52.760;6.726;2023-11-22T13:44:42;6.00;;;4.65;;
59006;SDS011;44792;52.760;6.726;2023-11-22T13:47:09;6.65;;;4.88;;
59006;SDS011;44792;52.760;6.726;2023-11-22T13:49:36;9.48;;;5.63;;
59006;SDS011;44792;52.760;6.726;2023-11-22T13:52:02;8.10;;;5.30;;
59006;SDS011;44792;52.760;6.726;2023-11-22T13:54:28;8.73;;;4.88;;
59006;SDS011;44792;52.760;6.726;2023-11-22T13:56:54;8.55;;;5.13;;
59006;SDS011;44792;52.760;6.726;2023-11-22T13:59:20;8.13;;;5.03;;
59006;SDS011;44792;52.760;6.726;2023-11-22T14:01:46;6.53;;;4.53;;
59006;SDS011;44792;52.760;6.726;2023-11-22T14:04:11;7.93;;;5.03;;
59006;SDS011;44792;52.760;6.726;2023-11-22T14:06:37;9.77;;;5.20;;
59006;SDS011;44792;52.760;6.726;2023-11-22T14:09:03;10.88;;;4.85;;
59006;SDS011;44792;52.760;6.726;2023-11-22T14:11:28;7.15;;;4.70;;
59006;SDS011;44792;52.760;6.726;2023-11-22T14:13:55;7.88;;;4.85;;
59006;SDS011;44792;52.760;6.726;2023-11-22T14:16:22;7.10;;;4.57;;
59006;SDS011;44792;52.760;6.726;2023-11-22T14:18:47;7.05;;;4.50;;
59006;SDS011;44792;52.760;6.726;2023-11-22T14:21:14;6.95;;;4.68;;
59006;SDS011;44792;52.760;6.726;2023-11-22T14:23:42;6.78;;;4.60;;
59006;SDS011;44792;52.760;6.726;2023-11-22T14:26:08;7.57;;;4.97;;
59006;SDS011;44792;52.760;6.726;2023-11-22T14:28:33;5.97;;;4.53;;
59006;SDS011;44792;52.760;6.726;2023-11-22T14:30:59;7.50;;;4.03;;
59006;SDS011;44792;52.760;6.726;2023-11-22T14:33:25;9.90;;;5.15;;
59006;SDS011;44792;52.760;6.726;2023-11-22T14:35:50;7.45;;;4.82;;
59006;SDS011;44792;52.760;6.726;2023-11-22T14:38:16;6.95;;;4.85;;
59006;SDS011;44792;52.760;6.726;2023-11-22T14:40:43;9.80;;;4.93;;